sensor_id;sensor_type;location;lat;lon;timestamp;P1;durP1;ratioP1;P2;durP2;ratioP2
26303;SDS011;57113;48.680;8.890;2023-02-23T00:01:28;7.55;;;5.00;;
26303;SDS011;57113;48.680;8.890;2023-02-23T00:03:55;7.05;;;4.82;;
26303;SDS011;57113;48.680;8.890;2023-02-23T00:06:22;7.22;;;4.57;;
26303;SDS011;57113;48.680;8.890;2023-02-23T00:08:48;6.13;;;4.50;;
26303;SDS011;57113;48.680;8.890;2023-02-23T00:11:16;7.57;;;4.90;;
26303;SDS011;57113;48.680;8.890;2023-02-23T00:13:43;7.05;;;4.50;;
26303;SDS011;57113;48.680;8.890;2023-02-23T00:16:10;10.00;;;5.35;;
26303;SDS011;57113;48.680;8.890;2023-02-23T00:18:37;9.10;;;5.40;;
26303;SDS011;57113;48.680;8.890;2023-02-23T00:21:21;7.57;;;4.75;;
26303;SDS011;57113;48.680;8.890;2023-02-23T00:23:49;7.80;;;5.15;;
26303;SDS011;57113;48.680;8.890;2023-02-23T00:26:16;7.70;;;4.68;;
26303;SDS011;57113;48.680;8.890;2023-02-23T00:28:44;8.32;;;5.47;;
26303;SDS011;57113;48.680;8.890;2023-02-23T00:31:11;6.82;;;5.38;;
26303;SDS011;57113;48.680;8.890;2023-02-23T00:33:37;7.45;;;5.40;;
26303;SDS011;57113;48.680;8.890;2023-02-23T00:36:07;6.82;;;5.13;;
26303;SDS011;57113;48.680;8.890;2023-02-23T00:38:33;6.55;;;4.95;;
26303;SDS011;57113;48.680;8.890;2023-02-23T00:41:18;10.48;;;5.45;;
26303;SDS011;57113;48.680;8.890;2023-02-23T00:43:47;6.65;;;4.72;;
26303;SDS011;57113;48.680;8.890;2023-02-23T00:46:15;7.78;;;5.15;;
26303;SDS011;57113;48.680;8.890;2023-02-23T00:48:41;8.20;;;5.15;;
26303;SDS011;57113;48.680;8.890;2023-02-23T00:51:08;7.53;;;5.53;;
26303;SDS011;57113;48.680;8.890;2023-02-23T00:53:34;8.43;;;5.28;;
26303;SDS011;57113;48.680;8.890;2023-02-23T00:56:02;7.45;;;4.65;;
26303;SDS011;57113;48.680;8.890;2023-02-23T00:58:29;5.90;;;4.43;;
26303;SDS011;57113;48.680;8.890;2023-02-23T01:00:55;8.52;;;4.97;;
26303;SDS011;57113;48.680;8.890;2023-02-23T01:03:23;7.82;;;5.15;;
26303;SDS011;57113;48.680;8.890;2023-02-23T01:05:49;7.88;;;4.97;;
26303;SDS011;57113;48.680;8.890;2023-02-23T01:08:16;8.85;;;5.15;;
26303;SDS011;57113;48.680;8.890;2023-02-23T01:10:43;7.00;;;4.78;;
26303;SDS011;57113;48.680;8.890;2023-02-23T01:13:16;6.40;;;5.00;;
26303;SDS011;57113;48.680;8.890;2023-02-23T01:15:42;8.10;;;5.50;;
26303;SDS011;57113;48.680;8.890;2023-02-23T01:18:09;7.75;;;5.20;;
26303;SDS011;57113;48.680;8.890;2023-02-23T01:20:35;8.07;;;5.07;;
26303;SDS011;57113;48.680;8.890;2023-02-23T01:23:02;8.65;;;5.07;;
26303;SDS011;57113;48.680;8.890;2023-02-23T01:25:28;8.25;;;5.13;;
26303;SDS011;57113;48.680;8.890;2023-02-23T01:27:55;8.43;;;5.53;;
26303;SDS011;57113;48.680;8.890;2023-02-23T01:30:21;7.57;;;5.50;;
26303;SDS011;57113;48.680;8.890;2023-02-23T01:32:47;8.02;;;5.32;;
26303;SDS011;57113;48.680;8.890;2023-02-23T01:35:13;13.13;;;5.53;;
26303;SDS011;57113;48.680;8.890;2023-02-23T01:37:40;8.70;;;5.38;;
26303;SDS011;57113;48.680;8.890;2023-02-23T01:40:14;7.18;;;4.88;;
26303;SDS011;57113;48.680;8.890;2023-02-23T01:42:52;8.10;;;5.20;;
26303;SDS011;57113;48.680;8.890;2023-02-23T01:45:26;9.02;;;5.47;;
26303;SDS011;57113;48.680;8.890;2023-02-23T01:50:18;8.45;;;5.60;;
26303;SDS011;57113;48.680;8.890;2023-02-23T01:52:45;8.77;;;5.47;;
26303;SDS011;57113;48.680;8.890;2023-02-23T01:55:12;8.57;;;5.40;;
26303;SDS011;57113;48.680;8.890;2023-02-23T01:57:38;8.02;;;5.45;;
26303;SDS011;57113;48.680;8.890;2023-02-23T02:00:05;7.88;;;5.13;;
26303;SDS011;57113;48.680;8.890;2023-02-23T02:02:38;8.48;;;5.50;;
26303;SDS011;57113;48.680;8.890;2023-02-23T02:05:05;9.13;;;5.95;;
26303;SDS011;57113;48.680;8.890;2023-02-23T02:07:37;7.53;;;4.97;;
26303;SDS011;57113;48.680;8.890;2023-02-23T02:10:04;7.40;;;5.18;;
26303;SDS011;57113;48.680;8.890;2023-02-23T02:12:47;8.82;;;4.97;;
26303;SDS011;57113;48.680;8.890;2023-02-23T02:15:16;8.45;;;5.68;;
26303;SDS011;57113;48.680;8.890;2023-02-23T02:40:51;8.95;;;5.70;;
26303;SDS011;57113;48.680;8.890;2023-02-23T02:46:11;8.85;;;5.72;;
26303;SDS011;57113;48.680;8.890;2023-02-23T02:51:04;8.07;;;5.18;;
26303;SDS011;57113;48.680;8.890;2023-02-23T02:56:15;7.80;;;5.25;;
26303;SDS011;57113;48.680;8.890;2023-02-23T02:58:43;8.32;;;5.47;;
26303;SDS011;57113;48.680;8.890;2023-02-23T03:01:13;8.55;;;5.25;;
26303;SDS011;57113;48.680;8.890;2023-02-23T03:04:16;8.40;;;5.25;;
26303;SDS011;57113;48.680;8.890;2023-02-23T03:07:04;7.93;;;5.47;;
26303;SDS011;57113;48.680;8.890;2023-02-23T03:10:02;7.40;;;5.00;;
26303;SDS011;57113;48.680;8.890;2023-02-23T03:12:56;7.13;;;5.47;;
26303;SDS011;57113;48.680;8.890;2023-02-23T03:24:14;7.10;;;4.80;;
26303;SDS011;57113;48.680;8.890;2023-02-23T03:27:03;7.53;;;5.43;;
26303;SDS011;57113;48.680;8.890;2023-02-23T03:29:52;7.65;;;5.10;;
26303;SDS011;57113;48.680;8.890;2023-02-23T03:32:55;8.27;;;5.68;;
26303;SDS011;57113;48.680;8.890;2023-02-23T03:35:46;9.73;;;5.57;;
26303;SDS011;57113;48.680;8.890;2023-02-23T03:41:19;7.70;;;5.25;;
26303;SDS011;57113;48.680;8.890;2023-02-23T03:44:07;7.10;;;5.38;;
26303;SDS011;57113;48.680;8.890;2023-02-23T03:46:53;8.35;;;5.85;;
26303;SDS011;57113;48.680;8.890;2023-02-23T03:49:38;8.63;;;5.57;;
26303;SDS011;57113;48.680;8.890;2023-02-23T03:52:25;8.10;;;5.57;;
26303;SDS011;57113;48.680;8.890;2023-02-23T03:55:14;8.18;;;5.03;;
26303;SDS011;57113;48.680;8.890;2023-02-23T03:58:00;7.32;;;5.03;;
26303;SDS011;57113;48.680;8.890;2023-02-23T04:00:46;7.85;;;5.28;;
26303;SDS011;57113;48.680;8.890;2023-02-23T04:03:32;7.75;;;5.50;;
26303;SDS011;57113;48.680;8.890;2023-02-23T04:06:19;8.13;;;4.90;;
26303;SDS011;57113;48.680;8.890;2023-02-23T04:09:05;7.13;;;5.25;;
26303;SDS011;57113;48.680;8.890;2023-02-23T04:11:52;7.55;;;5.20;;
26303;SDS011;57113;48.680;8.890;2023-02-23T04:14:40;7.15;;;4.95;;
26303;SDS011;57113;48.680;8.890;2023-02-23T04:17:08;7.78;;;5.03;;
26303;SDS011;57113;48.680;8.890;2023-02-23T04:19:34;7.03;;;4.75;;
26303;SDS011;57113;48.680;8.890;2023-02-23T04:22:00;8.48;;;5.80;;
26303;SDS011;57113;48.680;8.890;2023-02-23T04:24:26;6.82;;;5.45;;
26303;SDS011;57113;48.680;8.890;2023-02-23T04:26:52;7.30;;;5.65;;
26303;SDS011;57113;48.680;8.890;2023-02-23T04:29:18;6.15;;;4.60;;
26303;SDS011;57113;48.680;8.890;2023-02-23T04:31:44;7.80;;;4.93;;
26303;SDS011;57113;48.680;8.890;2023-02-23T04:34:11;6.85;;;4.53;;
26303;SDS011;57113;48.680;8.890;2023-02-23T04:36:38;7.93;;;5.38;;
26303;SDS011;57113;48.680;8.890;2023-02-23T04:39:04;8.48;;;5.72;;
26303;SDS011;57113;48.680;8.890;2023-02-23T04:41:30;6.60;;;4.85;;
26303;SDS011;57113;48.680;8.890;2023-02-23T04:43:56;9.73;;;5.32;;
26303;SDS011;57113;48.680;8.890;2023-02-23T04:46:22;8.70;;;5.85;;
26303;SDS011;57113;48.680;8.890;2023-02-23T04:48:48;8.68;;;5.40;;
26303;SDS011;57113;48.680;8.890;2023-02-23T04:51:14;8.43;;;5.18;;
26303;SDS011;57113;48.680;8.890;2023-02-23T04:53:40;8.40;;;5.20;;
26303;SDS011;57113;48.680;8.890;2023-02-23T04:56:06;8.20;;;5.82;;
26303;SDS011;57113;48.680;8.890;2023-02-23T04:58:32;7.60;;;5.13;;
26303;SDS011;57113;48.680;8.890;2023-02-23T05:01:05;8.00;;;5.70;;
26303;SDS011;57113;48.680;8.890;2023-02-23T05:03:32;10.77;;;5.72;;
26303;SDS011;57113;48.680;8.890;2023-02-23T05:05:58;8.05;;;6.00;;
26303;SDS011;57113;48.680;8.890;2023-02-23T05:08:24;7.53;;;5.20;;
26303;SDS011;57113;48.680;8.890;2023-02-23T05:10:50;8.73;;;5.65;;
26303;SDS011;57113;48.680;8.890;2023-02-23T05:13:16;6.28;;;4.90;;
26303;SDS011;57113;48.680;8.890;2023-02-23T05:15:42;8.52;;;5.60;;
26303;SDS011;57113;48.680;8.890;2023-02-23T05:18:08;7.47;;;5.35;;
26303;SDS011;57113;48.680;8.890;2023-02-23T05:20:34;8.02;;;5.00;;
26303;SDS011;57113;48.680;8.890;2023-02-23T05:23:00;8.25;;;5.40;;
26303;SDS011;57113;48.680;8.890;2023-02-23T05:25:26;6.93;;;4.93;;
26303;SDS011;57113;48.680;8.890;2023-02-23T05:27:52;7.50;;;5.55;;
26303;SDS011;57113;48.680;8.890;2023-02-23T05:30:18;9.48;;;6.07;;
26303;SDS011;57113;48.680;8.890;2023-02-23T05:32:44;7.93;;;5.45;;
26303;SDS011;57113;48.680;8.890;2023-02-23T05:35:10;7.65;;;5.18;;
26303;SDS011;57113;48.680;8.890;2023-02-23T05:37:36;8.80;;;5.70;;
26303;SDS011;57113;48.680;8.890;2023-02-23T05:40:03;8.30;;;5.70;;
26303;SDS011;57113;48.680;8.890;2023-02-23T05:42:29;7.90;;;5.70;;
26303;SDS011;57113;48.680;8.890;2023-02-23T05:44:55;8.57;;;6.03;;
26303;SDS011;57113;48.680;8.890;2023-02-23T05:47:21;10.30;;;5.43;;
26303;SDS011;57113;48.680;8.890;2023-02-23T05:49:47;10.88;;;5.97;;
26303;SDS011;57113;48.680;8.890;2023-02-23T05:52:13;7.28;;;5.50;;
26303;SDS011;57113;48.680;8.890;2023-02-23T05:54:39;8.05;;;5.28;;
26303;SDS011;57113;48.680;8.890;2023-02-23T05:57:05;10.13;;;5.82;;
26303;SDS011;57113;48.680;8.890;2023-02-23T05:59:32;8.15;;;6.22;;
26303;SDS011;57113;48.680;8.890;2023-02-23T06:01:58;7.30;;;5.47;;
26303;SDS011;57113;48.680;8.890;2023-02-23T06:04:25;8.65;;;5.30;;
26303;SDS011;57113;48.680;8.890;2023-02-23T06:06:51;7.30;;;5.10;;
26303;SDS011;57113;48.680;8.890;2023-02-23T06:09:17;9.10;;;5.72;;
26303;SDS011;57113;48.680;8.890;2023-02-23T06:11:43;8.05;;;5.40;;
26303;SDS011;57113;48.680;8.890;2023-02-23T06:14:09;7.72;;;4.90;;
26303;SDS011;57113;48.680;8.890;2023-02-23T06:16:35;7.75;;;5.78;;
26303;SDS011;57113;48.680;8.890;2023-02-23T06:19:02;9.23;;;5.75;;
26303;SDS011;57113;48.680;8.890;2023-02-23T06:21:27;7.35;;;5.63;;
26303;SDS011;57113;48.680;8.890;2023-02-23T06:23:53;8.18;;;5.53;;
26303;SDS011;57113;48.680;8.890;2023-02-23T06:26:21;8.00;;;5.80;;
26303;SDS011;57113;48.680;8.890;2023-02-23T06:28:47;9.20;;;6.00;;
26303;SDS011;57113;48.680;8.890;2023-02-23T06:31:13;7.95;;;5.65;;
26303;SDS011;57113;48.680;8.890;2023-02-23T06:33:39;7.28;;;5.60;;
26303;SDS011;57113;48.680;8.890;2023-02-23T06:36:05;7.93;;;5.60;;
26303;SDS011;57113;48.680;8.890;2023-02-23T06:38:31;8.63;;;5.75;;
26303;SDS011;57113;48.680;8.890;2023-02-23T06:40:57;8.25;;;5.45;;
26303;SDS011;57113;48.680;8.890;2023-02-23T06:43:23;9.05;;;5.32;;
26303;SDS011;57113;48.680;8.890;2023-02-23T06:45:49;7.90;;;5.70;;
26303;SDS011;57113;48.680;8.890;2023-02-23T06:48:15;9.75;;;6.03;;
26303;SDS011;57113;48.680;8.890;2023-02-23T06:50:41;7.47;;;5.30;;
26303;SDS011;57113;48.680;8.890;2023-02-23T06:53:07;7.82;;;5.22;;
26303;SDS011;57113;48.680;8.890;2023-02-23T06:55:36;10.23;;;5.63;;
26303;SDS011;57113;48.680;8.890;2023-02-23T06:58:02;8.13;;;5.65;;
26303;SDS011;57113;48.680;8.890;2023-02-23T07:00:28;9.43;;;6.47;;
26303;SDS011;57113;48.680;8.890;2023-02-23T07:02:55;9.52;;;6.13;;
26303;SDS011;57113;48.680;8.890;2023-02-23T07:05:21;8.20;;;5.72;;
26303;SDS011;57113;48.680;8.890;2023-02-23T07:07:47;6.82;;;5.38;;
26303;SDS011;57113;48.680;8.890;2023-02-23T07:10:13;7.47;;;5.25;;
26303;SDS011;57113;48.680;8.890;2023-02-23T07:12:39;8.82;;;5.82;;
26303;SDS011;57113;48.680;8.890;2023-02-23T07:15:06;10.05;;;5.80;;
26303;SDS011;57113;48.680;8.890;2023-02-23T07:17:32;8.73;;;6.10;;
26303;SDS011;57113;48.680;8.890;2023-02-23T07:19:58;7.90;;;5.30;;
26303;SDS011;57113;48.680;8.890;2023-02-23T07:22:24;8.30;;;5.85;;
26303;SDS011;57113;48.680;8.890;2023-02-23T07:24:53;9.18;;;6.10;;
26303;SDS011;57113;48.680;8.890;2023-02-23T07:27:19;9.00;;;5.68;;
26303;SDS011;57113;48.680;8.890;2023-02-23T07:29:45;7.90;;;5.43;;
26303;SDS011;57113;48.680;8.890;2023-02-23T07:32:11;8.07;;;5.65;;
26303;SDS011;57113;48.680;8.890;2023-02-23T07:34:37;7.75;;;5.65;;
26303;SDS011;57113;48.680;8.890;2023-02-23T07:37:03;8.10;;;5.78;;
26303;SDS011;57113;48.680;8.890;2023-02-23T07:39:29;10.00;;;5.78;;
26303;SDS011;57113;48.680;8.890;2023-02-23T07:41:56;9.30;;;5.97;;
26303;SDS011;57113;48.680;8.890;2023-02-23T07:44:22;7.25;;;5.32;;
26303;SDS011;57113;48.680;8.890;2023-02-23T07:46:48;8.10;;;5.97;;
26303;SDS011;57113;48.680;8.890;2023-02-23T07:49:14;7.53;;;5.88;;
26303;SDS011;57113;48.680;8.890;2023-02-23T07:51:40;6.57;;;5.05;;
26303;SDS011;57113;48.680;8.890;2023-02-23T07:54:06;10.40;;;5.78;;
26303;SDS011;57113;48.680;8.890;2023-02-23T07:56:32;7.95;;;5.30;;
26303;SDS011;57113;48.680;8.890;2023-02-23T07:58:59;7.43;;;5.20;;
26303;SDS011;57113;48.680;8.890;2023-02-23T08:01:25;8.07;;;5.35;;
26303;SDS011;57113;48.680;8.890;2023-02-23T08:03:51;8.18;;;4.95;;
26303;SDS011;57113;48.680;8.890;2023-02-23T08:06:17;6.35;;;4.80;;
26303;SDS011;57113;48.680;8.890;2023-02-23T08:08:44;6.15;;;4.82;;
26303;SDS011;57113;48.680;8.890;2023-02-23T08:11:10;6.93;;;4.97;;
26303;SDS011;57113;48.680;8.890;2023-02-23T08:13:36;8.63;;;4.78;;
26303;SDS011;57113;48.680;8.890;2023-02-23T08:16:02;5.95;;;4.50;;
26303;SDS011;57113;48.680;8.890;2023-02-23T08:18:28;6.80;;;4.38;;
26303;SDS011;57113;48.680;8.890;2023-02-23T08:20:58;6.60;;;5.00;;
26303;SDS011;57113;48.680;8.890;2023-02-23T08:23:24;8.25;;;4.63;;
26303;SDS011;57113;48.680;8.890;2023-02-23T08:25:50;6.45;;;4.88;;
26303;SDS011;57113;48.680;8.890;2023-02-23T08:28:17;8.15;;;4.63;;
26303;SDS011;57113;48.680;8.890;2023-02-23T08:30:43;7.10;;;4.65;;
26303;SDS011;57113;48.680;8.890;2023-02-23T08:33:09;5.40;;;4.40;;
26303;SDS011;57113;48.680;8.890;2023-02-23T08:35:35;6.45;;;4.70;;
26303;SDS011;57113;48.680;8.890;2023-02-23T08:38:01;5.47;;;3.92;;
26303;SDS011;57113;48.680;8.890;2023-02-23T08:40:27;6.43;;;4.30;;
26303;SDS011;57113;48.680;8.890;2023-02-23T08:42:53;7.22;;;4.28;;
26303;SDS011;57113;48.680;8.890;2023-02-23T08:45:19;6.30;;;4.18;;
26303;SDS011;57113;48.680;8.890;2023-02-23T08:47:45;6.03;;;4.43;;
26303;SDS011;57113;48.680;8.890;2023-02-23T08:50:12;6.40;;;4.65;;
26303;SDS011;57113;48.680;8.890;2023-02-23T08:52:38;11.57;;;6.63;;
26303;SDS011;57113;48.680;8.890;2023-02-23T08:55:05;13.57;;;6.97;;
26303;SDS011;57113;48.680;8.890;2023-02-23T08:57:34;14.63;;;7.32;;
26303;SDS011;57113;48.680;8.890;2023-02-23T09:00:00;11.38;;;6.63;;
26303;SDS011;57113;48.680;8.890;2023-02-23T09:02:27;9.27;;;6.43;;
26303;SDS011;57113;48.680;8.890;2023-02-23T09:04:53;9.30;;;6.38;;
26303;SDS011;57113;48.680;8.890;2023-02-23T09:07:20;11.27;;;6.70;;
26303;SDS011;57113;48.680;8.890;2023-02-23T09:09:53;9.95;;;6.30;;
26303;SDS011;57113;48.680;8.890;2023-02-23T09:12:19;8.40;;;5.80;;
26303;SDS011;57113;48.680;8.890;2023-02-23T09:14:45;12.02;;;6.40;;
26303;SDS011;57113;48.680;8.890;2023-02-23T09:17:11;10.13;;;6.13;;
26303;SDS011;57113;48.680;8.890;2023-02-23T09:19:37;9.18;;;6.25;;
26303;SDS011;57113;48.680;8.890;2023-02-23T09:22:03;8.75;;;5.95;;
26303;SDS011;57113;48.680;8.890;2023-02-23T09:24:30;9.27;;;5.40;;
26303;SDS011;57113;48.680;8.890;2023-02-23T09:26:56;10.10;;;5.78;;
26303;SDS011;57113;48.680;8.890;2023-02-23T09:29:22;10.23;;;5.50;;
26303;SDS011;57113;48.680;8.890;2023-02-23T09:31:48;8.18;;;5.18;;
26303;SDS011;57113;48.680;8.890;2023-02-23T09:34:17;9.68;;;5.68;;
26303;SDS011;57113;48.680;8.890;2023-02-23T09:36:43;8.00;;;5.43;;
26303;SDS011;57113;48.680;8.890;2023-02-23T09:39:09;7.18;;;5.03;;
26303;SDS011;57113;48.680;8.890;2023-02-23T09:49:16;8.85;;;5.13;;
26303;SDS011;57113;48.680;8.890;2023-02-23T09:51:45;6.70;;;4.82;;
26303;SDS011;57113;48.680;8.890;2023-02-23T09:54:13;8.02;;;4.63;;
26303;SDS011;57113;48.680;8.890;2023-02-23T09:56:40;7.05;;;4.78;;
26303;SDS011;57113;48.680;8.890;2023-02-23T09:59:15;7.85;;;5.00;;
26303;SDS011;57113;48.680;8.890;2023-02-23T10:06:44;8.60;;;4.78;;
26303;SDS011;57113;48.680;8.890;2023-02-23T10:12:09;8.40;;;4.38;;
26303;SDS011;57113;48.680;8.890;2023-02-23T10:22:21;7.43;;;4.82;;
26303;SDS011;57113;48.680;8.890;2023-02-23T10:24:49;7.07;;;4.18;;
26303;SDS011;57113;48.680;8.890;2023-02-23T10:27:21;6.88;;;4.18;;
26303;SDS011;57113;48.680;8.890;2023-02-23T10:29:52;7.50;;;3.97;;
26303;SDS011;57113;48.680;8.890;2023-02-23T10:32:28;6.70;;;4.10;;
26303;SDS011;57113;48.680;8.890;2023-02-23T10:34:57;6.45;;;4.10;;
26303;SDS011;57113;48.680;8.890;2023-02-23T10:37:24;7.40;;;4.35;;
26303;SDS011;57113;48.680;8.890;2023-02-23T10:39:50;5.68;;;3.53;;
26303;SDS011;57113;48.680;8.890;2023-02-23T10:42:24;5.85;;;3.60;;
26303;SDS011;57113;48.680;8.890;2023-02-23T10:44:52;6.18;;;3.65;;
26303;SDS011;57113;48.680;8.890;2023-02-23T10:47:19;6.30;;;3.78;;
26303;SDS011;57113;48.680;8.890;2023-02-23T10:49:48;6.40;;;3.60;;
26303;SDS011;57113;48.680;8.890;2023-02-23T10:52:16;5.63;;;3.78;;
26303;SDS011;57113;48.680;8.890;2023-02-23T10:54:44;7.57;;;3.78;;
26303;SDS011;57113;48.680;8.890;2023-02-23T10:57:12;11.00;;;5.43;;
26303;SDS011;57113;48.680;8.890;2023-02-23T10:59:57;11.70;;;5.22;;
26303;SDS011;57113;48.680;8.890;2023-02-23T11:02:24;10.80;;;5.80;;
26303;SDS011;57113;48.680;8.890;2023-02-23T11:04:54;13.82;;;5.57;;
26303;SDS011;57113;48.680;8.890;2023-02-23T11:07:24;13.32;;;5.65;;
26303;SDS011;57113;48.680;8.890;2023-02-23T11:09:53;9.18;;;5.18;;
26303;SDS011;57113;48.680;8.890;2023-02-23T11:12:20;12.00;;;5.72;;
26303;SDS011;57113;48.680;8.890;2023-02-23T11:14:48;10.32;;;5.25;;
26303;SDS011;57113;48.680;8.890;2023-02-23T11:17:53;14.68;;;5.60;;
26303;SDS011;57113;48.680;8.890;2023-02-23T11:20:17;10.70;;;4.75;;
26303;SDS011;57113;48.680;8.890;2023-02-23T11:22:45;12.48;;;4.90;;
26303;SDS011;57113;48.680;8.890;2023-02-23T11:25:13;9.07;;;4.55;;
26303;SDS011;57113;48.680;8.890;2023-02-23T11:27:40;9.43;;;4.72;;
26303;SDS011;57113;48.680;8.890;2023-02-23T11:30:11;9.65;;;4.57;;
26303;SDS011;57113;48.680;8.890;2023-02-23T11:32:37;8.55;;;4.53;;
26303;SDS011;57113;48.680;8.890;2023-02-23T11:37:41;8.05;;;4.15;;
26303;SDS011;57113;48.680;8.890;2023-02-23T11:40:16;11.57;;;4.65;;
26303;SDS011;57113;48.680;8.890;2023-02-23T11:42:54;8.48;;;3.92;;
26303;SDS011;57113;48.680;8.890;2023-02-23T11:45:22;7.97;;;3.97;;
26303;SDS011;57113;48.680;8.890;2023-02-23T11:47:49;8.75;;;4.07;;
26303;SDS011;57113;48.680;8.890;2023-02-23T11:50:37;9.25;;;4.07;;
26303;SDS011;57113;48.680;8.890;2023-02-23T11:53:03;8.35;;;3.45;;
26303;SDS011;57113;48.680;8.890;2023-02-23T11:55:30;5.95;;;3.50;;
26303;SDS011;57113;48.680;8.890;2023-02-23T11:58:10;8.45;;;3.63;;
26303;SDS011;57113;48.680;8.890;2023-02-23T12:00:37;8.00;;;4.07;;
26303;SDS011;57113;48.680;8.890;2023-02-23T12:03:03;8.40;;;3.53;;
26303;SDS011;57113;48.680;8.890;2023-02-23T12:05:30;5.57;;;3.30;;
26303;SDS011;57113;48.680;8.890;2023-02-23T12:15:36;5.03;;;2.95;;
26303;SDS011;57113;48.680;8.890;2023-02-23T12:18:07;8.25;;;3.30;;
26303;SDS011;57113;48.680;8.890;2023-02-23T12:20:36;5.93;;;3.15;;
26303;SDS011;57113;48.680;8.890;2023-02-23T12:23:09;5.80;;;3.20;;
26303;SDS011;57113;48.680;8.890;2023-02-23T12:28:30;5.10;;;3.00;;
26303;SDS011;57113;48.680;8.890;2023-02-23T12:31:03;7.13;;;3.08;;
26303;SDS011;57113;48.680;8.890;2023-02-23T12:33:33;5.75;;;3.30;;
26303;SDS011;57113;48.680;8.890;2023-02-23T12:36:42;6.00;;;3.00;;
26303;SDS011;57113;48.680;8.890;2023-02-23T12:39:02;7.60;;;2.92;;
26303;SDS011;57113;48.680;8.890;2023-02-23T12:41:44;5.25;;;2.80;;
26303;SDS011;57113;48.680;8.890;2023-02-23T12:44:59;4.70;;;3.00;;
26303;SDS011;57113;48.680;8.890;2023-02-23T12:47:01;6.57;;;2.60;;
26303;SDS011;57113;48.680;8.890;2023-02-23T12:52:15;6.32;;;2.92;;
26303;SDS011;57113;48.680;8.890;2023-02-23T12:54:42;4.78;;;2.85;;
26303;SDS011;57113;48.680;8.890;2023-02-23T12:59:58;5.90;;;3.00;;
26303;SDS011;57113;48.680;8.890;2023-02-23T13:02:48;4.78;;;2.90;;
26303;SDS011;57113;48.680;8.890;2023-02-23T13:05:15;5.05;;;2.78;;
26303;SDS011;57113;48.680;8.890;2023-02-23T13:18:08;5.00;;;2.90;;
26303;SDS011;57113;48.680;8.890;2023-02-23T13:20:39;4.18;;;2.55;;
26303;SDS011;57113;48.680;8.890;2023-02-23T13:23:12;5.68;;;2.80;;
26303;SDS011;57113;48.680;8.890;2023-02-23T13:28:15;4.88;;;2.80;;
26303;SDS011;57113;48.680;8.890;2023-02-23T13:30:41;4.47;;;3.03;;
26303;SDS011;57113;48.680;8.890;2023-02-23T13:33:18;4.80;;;2.58;;
26303;SDS011;57113;48.680;8.890;2023-02-23T13:35:47;6.20;;;2.70;;
26303;SDS011;57113;48.680;8.890;2023-02-23T13:38:18;3.92;;;2.42;;
26303;SDS011;57113;48.680;8.890;2023-02-23T13:40:58;5.00;;;2.42;;
26303;SDS011;57113;48.680;8.890;2023-02-23T13:43:28;5.35;;;2.63;;
26303;SDS011;57113;48.680;8.890;2023-02-23T13:50:57;5.40;;;3.00;;
26303;SDS011;57113;48.680;8.890;2023-02-23T13:53:46;3.88;;;2.60;;
26303;SDS011;57113;48.680;8.890;2023-02-23T13:56:19;7.43;;;3.20;;
26303;SDS011;57113;48.680;8.890;2023-02-23T13:58:47;6.00;;;3.10;;
26303;SDS011;57113;48.680;8.890;2023-02-23T14:01:16;5.15;;;2.53;;
26303;SDS011;57113;48.680;8.890;2023-02-23T14:03:52;4.10;;;2.50;;
26303;SDS011;57113;48.680;8.890;2023-02-23T14:06:20;4.18;;;2.80;;
26303;SDS011;57113;48.680;8.890;2023-02-23T14:09:29;4.53;;;2.78;;
26303;SDS011;57113;48.680;8.890;2023-02-23T14:11:39;4.30;;;2.55;;
26303;SDS011;57113;48.680;8.890;2023-02-23T14:14:08;4.32;;;2.70;;
26303;SDS011;57113;48.680;8.890;2023-02-23T14:16:36;4.45;;;2.85;;
26303;SDS011;57113;48.680;8.890;2023-02-23T14:21:32;4.18;;;2.92;;
26303;SDS011;57113;48.680;8.890;2023-02-23T14:27:13;4.15;;;2.58;;
26303;SDS011;57113;48.680;8.890;2023-02-23T14:29:42;3.40;;;2.70;;
26303;SDS011;57113;48.680;8.890;2023-02-23T14:34:51;3.55;;;2.53;;
26303;SDS011;57113;48.680;8.890;2023-02-23T14:37:18;4.53;;;2.50;;
26303;SDS011;57113;48.680;8.890;2023-02-23T14:39:47;4.00;;;2.80;;
26303;SDS011;57113;48.680;8.890;2023-02-23T14:42:19;4.40;;;2.42;;
26303;SDS011;57113;48.680;8.890;2023-02-23T14:44:46;5.72;;;2.95;;
26303;SDS011;57113;48.680;8.890;2023-02-23T14:47:16;3.90;;;2.70;;
26303;SDS011;57113;48.680;8.890;2023-02-23T14:49:47;3.83;;;2.55;;
26303;SDS011;57113;48.680;8.890;2023-02-23T14:52:16;5.55;;;2.60;;
26303;SDS011;57113;48.680;8.890;2023-02-23T14:54:44;3.35;;;2.65;;
26303;SDS011;57113;48.680;8.890;2023-02-23T14:57:21;3.92;;;2.25;;
26303;SDS011;57113;48.680;8.890;2023-02-23T15:00:10;4.05;;;2.38;;
26303;SDS011;57113;48.680;8.890;2023-02-23T15:02:36;4.75;;;2.47;;
26303;SDS011;57113;48.680;8.890;2023-02-23T15:05:14;4.75;;;2.67;;
26303;SDS011;57113;48.680;8.890;2023-02-23T15:07:41;5.13;;;2.95;;
26303;SDS011;57113;48.680;8.890;2023-02-23T15:10:17;4.10;;;2.40;;
26303;SDS011;57113;48.680;8.890;2023-02-23T15:12:45;3.50;;;2.47;;
26303;SDS011;57113;48.680;8.890;2023-02-23T15:15:21;5.15;;;2.80;;
26303;SDS011;57113;48.680;8.890;2023-02-23T15:17:48;2.92;;;2.35;;
26303;SDS011;57113;48.680;8.890;2023-02-23T15:20:16;4.65;;;2.50;;
26303;SDS011;57113;48.680;8.890;2023-02-23T15:22:45;4.22;;;2.63;;
26303;SDS011;57113;48.680;8.890;2023-02-23T15:25:19;3.70;;;2.22;;
26303;SDS011;57113;48.680;8.890;2023-02-23T15:27:46;3.13;;;2.15;;
26303;SDS011;57113;48.680;8.890;2023-02-23T15:30:26;4.13;;;2.33;;
26303;SDS011;57113;48.680;8.890;2023-02-23T15:33:02;4.13;;;2.47;;
26303;SDS011;57113;48.680;8.890;2023-02-23T15:35:28;3.63;;;2.33;;
26303;SDS011;57113;48.680;8.890;2023-02-23T15:37:55;4.57;;;2.55;;
26303;SDS011;57113;48.680;8.890;2023-02-23T15:40:22;3.90;;;2.70;;
26303;SDS011;57113;48.680;8.890;2023-02-23T15:42:54;3.70;;;2.20;;
26303;SDS011;57113;48.680;8.890;2023-02-23T15:47:56;4.05;;;2.50;;
26303;SDS011;57113;48.680;8.890;2023-02-23T15:50:29;3.15;;;2.08;;
26303;SDS011;57113;48.680;8.890;2023-02-23T15:53:12;3.17;;;2.20;;
26303;SDS011;57113;48.680;8.890;2023-02-23T15:55:43;2.92;;;2.22;;
26303;SDS011;57113;48.680;8.890;2023-02-23T15:58:12;3.97;;;2.30;;
26303;SDS011;57113;48.680;8.890;2023-02-23T16:00:43;4.72;;;2.30;;
26303;SDS011;57113;48.680;8.890;2023-02-23T16:06:23;3.50;;;2.40;;
26303;SDS011;57113;48.680;8.890;2023-02-23T16:08:57;3.83;;;2.08;;
26303;SDS011;57113;48.680;8.890;2023-02-23T16:11:23;3.13;;;2.13;;
26303;SDS011;57113;48.680;8.890;2023-02-23T16:13:50;2.78;;;2.05;;
26303;SDS011;57113;48.680;8.890;2023-02-23T16:16:17;3.17;;;2.20;;
26303;SDS011;57113;48.680;8.890;2023-02-23T16:18:52;4.65;;;2.30;;
26303;SDS011;57113;48.680;8.890;2023-02-23T16:21:25;3.20;;;1.90;;
26303;SDS011;57113;48.680;8.890;2023-02-23T16:23:52;3.75;;;2.40;;
26303;SDS011;57113;48.680;8.890;2023-02-23T16:26:26;3.00;;;2.17;;
26303;SDS011;57113;48.680;8.890;2023-02-23T16:28:57;2.72;;;1.90;;
26303;SDS011;57113;48.680;8.890;2023-02-23T16:31:31;4.05;;;2.20;;
26303;SDS011;57113;48.680;8.890;2023-02-23T16:36:50;2.85;;;2.00;;
26303;SDS011;57113;48.680;8.890;2023-02-23T16:39:19;3.42;;;2.40;;
26303;SDS011;57113;48.680;8.890;2023-02-23T16:41:46;2.83;;;2.10;;
26303;SDS011;57113;48.680;8.890;2023-02-23T16:44:16;3.30;;;2.25;;
26303;SDS011;57113;48.680;8.890;2023-02-23T16:49:25;2.70;;;1.90;;
26303;SDS011;57113;48.680;8.890;2023-02-23T16:51:54;2.92;;;1.92;;
26303;SDS011;57113;48.680;8.890;2023-02-23T16:54:20;4.68;;;2.00;;
26303;SDS011;57113;48.680;8.890;2023-02-23T16:56:46;3.38;;;2.17;;
26303;SDS011;57113;48.680;8.890;2023-02-23T16:59:13;3.75;;;2.00;;
26303;SDS011;57113;48.680;8.890;2023-02-23T17:01:40;3.40;;;2.33;;
26303;SDS011;57113;48.680;8.890;2023-02-23T17:04:10;3.67;;;2.20;;
26303;SDS011;57113;48.680;8.890;2023-02-23T17:06:39;3.20;;;1.90;;